sensor_id;sensor_type;location;lat;lon;timestamp;P1;durP1;ratioP1;P2;durP2;ratioP2
2602;SDS011;1311;47.966;7.958;2023-06-26T00:01:34;6.83;;;5.40;;
2602;SDS011;1311;47.966;7.958;2023-06-26T00:04:01;7.60;;;6.27;;
2602;SDS011;1311;47.966;7.958;2023-06-26T00:06:28;6.13;;;5.53;;
2602;SDS011;1311;47.966;7.958;2023-06-26T00:08:54;6.07;;;5.30;;
2602;SDS011;1311;47.966;7.958;2023-06-26T00:11:23;5.67;;;5.00;;
2602;SDS011;1311;47.966;7.958;2023-06-26T00:13:52;6.87;;;6.17;;
2602;SDS011;1311;47.966;7.958;2023-06-26T00:16:20;6.33;;;5.53;;
2602;SDS011;1311;47.966;7.958;2023-06-26T00:18:47;6.97;;;6.27;;
2602;SDS011;1311;47.966;7.958;2023-06-26T00:21:13;6.37;;;5.30;;
2602;SDS011;1311;47.966;7.958;2023-06-26T00:23:40;6.20;;;5.60;;
2602;SDS011;1311;47.966;7.958;2023-06-26T00:26:07;6.40;;;5.60;;
2602;SDS011;1311;47.966;7.958;2023-06-26T00:28:35;6.20;;;5.60;;
2602;SDS011;1311;47.966;7.958;2023-06-26T00:31:02;7.97;;;6.40;;
2602;SDS011;1311;47.966;7.958;2023-06-26T00:33:30;7.67;;;5.90;;
2602;SDS011;1311;47.966;7.958;2023-06-26T00:35:56;7.40;;;5.80;;
2602;SDS011;1311;47.966;7.958;2023-06-26T00:38:23;7.47;;;6.77;;
2602;SDS011;1311;47.966;7.958;2023-06-26T00:40:50;6.90;;;5.90;;
2602;SDS011;1311;47.966;7.958;2023-06-26T00:43:17;7.03;;;6.33;;
2602;SDS011;1311;47.966;7.958;2023-06-26T00:45:43;6.47;;;5.87;;
2602;SDS011;1311;47.966;7.958;2023-06-26T00:48:10;8.40;;;6.80;;
2602;SDS011;1311;47.966;7.958;2023-06-26T00:50:39;6.93;;;6.03;;
2602;SDS011;1311;47.966;7.958;2023-06-26T00:53:07;6.83;;;6.13;;
2602;SDS011;1311;47.966;7.958;2023-06-26T00:55:35;6.80;;;5.70;;
2602;SDS011;1311;47.966;7.958;2023-06-26T00:58:02;5.90;;;5.30;;
2602;SDS011;1311;47.966;7.958;2023-06-26T01:00:29;7.90;;;5.60;;
2602;SDS011;1311;47.966;7.958;2023-06-26T01:02:55;6.50;;;5.30;;
2602;SDS011;1311;47.966;7.958;2023-06-26T01:05:24;6.43;;;5.83;;
2602;SDS011;1311;47.966;7.958;2023-06-26T01:07:52;7.10;;;5.77;;
2602;SDS011;1311;47.966;7.958;2023-06-26T01:10:20;6.90;;;6.20;;
2602;SDS011;1311;47.966;7.958;2023-06-26T01:12:47;6.43;;;5.63;;
2602;SDS011;1311;47.966;7.958;2023-06-26T01:15:14;6.90;;;6.00;;
2602;SDS011;1311;47.966;7.958;2023-06-26T01:17:41;6.20;;;5.60;;
2602;SDS011;1311;47.966;7.958;2023-06-26T01:20:10;6.07;;;5.47;;
2602;SDS011;1311;47.966;7.958;2023-06-26T01:22:39;6.03;;;5.40;;
2602;SDS011;1311;47.966;7.958;2023-06-26T01:25:15;7.23;;;6.53;;
2602;SDS011;1311;47.966;7.958;2023-06-26T01:27:50;6.83;;;6.13;;
2602;SDS011;1311;47.966;7.958;2023-06-26T01:30:18;6.67;;;5.53;;
2602;SDS011;1311;47.966;7.958;2023-06-26T01:32:47;6.90;;;6.17;;
2602;SDS011;1311;47.966;7.958;2023-06-26T01:35:15;6.17;;;5.57;;
2602;SDS011;1311;47.966;7.958;2023-06-26T01:37:42;6.43;;;5.83;;
2602;SDS011;1311;47.966;7.958;2023-06-26T01:40:09;6.13;;;5.50;;
2602;SDS011;1311;47.966;7.958;2023-06-26T01:42:36;6.70;;;6.10;;
2602;SDS011;1311;47.966;7.958;2023-06-26T01:45:06;6.77;;;6.07;;
2602;SDS011;1311;47.966;7.958;2023-06-26T01:47:37;6.37;;;5.77;;
2602;SDS011;1311;47.966;7.958;2023-06-26T01:50:08;6.83;;;6.13;;
2602;SDS011;1311;47.966;7.958;2023-06-26T01:52:39;5.63;;;5.03;;
2602;SDS011;1311;47.966;7.958;2023-06-26T01:55:10;7.40;;;5.90;;
2602;SDS011;1311;47.966;7.958;2023-06-26T01:57:42;6.07;;;5.47;;
2602;SDS011;1311;47.966;7.958;2023-06-26T02:00:13;6.47;;;5.87;;
2602;SDS011;1311;47.966;7.958;2023-06-26T02:02:42;6.30;;;5.70;;
2602;SDS011;1311;47.966;7.958;2023-06-26T02:05:09;6.00;;;5.40;;
2602;SDS011;1311;47.966;7.958;2023-06-26T02:07:37;7.80;;;6.17;;
2602;SDS011;1311;47.966;7.958;2023-06-26T02:10:04;6.17;;;5.57;;
2602;SDS011;1311;47.966;7.958;2023-06-26T02:12:32;6.27;;;5.60;;
2602;SDS011;1311;47.966;7.958;2023-06-26T02:14:59;6.13;;;5.53;;
2602;SDS011;1311;47.966;7.958;2023-06-26T02:17:27;7.73;;;5.60;;
2602;SDS011;1311;47.966;7.958;2023-06-26T02:19:53;7.40;;;6.13;;
2602;SDS011;1311;47.966;7.958;2023-06-26T02:22:20;6.50;;;5.80;;
2602;SDS011;1311;47.966;7.958;2023-06-26T02:24:47;6.83;;;6.13;;
2602;SDS011;1311;47.966;7.958;2023-06-26T02:27:14;7.00;;;6.27;;
2602;SDS011;1311;47.966;7.958;2023-06-26T02:29:41;6.67;;;6.07;;
2602;SDS011;1311;47.966;7.958;2023-06-26T02:32:08;7.80;;;6.90;;
2602;SDS011;1311;47.966;7.958;2023-06-26T02:34:36;6.33;;;5.73;;
2602;SDS011;1311;47.966;7.958;2023-06-26T02:37:03;7.20;;;6.50;;
2602;SDS011;1311;47.966;7.958;2023-06-26T02:39:32;6.77;;;6.17;;
2602;SDS011;1311;47.966;7.958;2023-06-26T02:41:59;7.07;;;6.37;;
2602;SDS011;1311;47.966;7.958;2023-06-26T02:44:25;6.60;;;5.77;;
2602;SDS011;1311;47.966;7.958;2023-06-26T02:46:52;6.33;;;5.67;;
2602;SDS011;1311;47.966;7.958;2023-06-26T02:49:19;8.03;;;6.67;;
2602;SDS011;1311;47.966;7.958;2023-06-26T02:51:47;7.20;;;6.20;;
2602;SDS011;1311;47.966;7.958;2023-06-26T02:54:14;6.60;;;5.43;;
2602;SDS011;1311;47.966;7.958;2023-06-26T02:56:40;7.57;;;6.77;;
2602;SDS011;1311;47.966;7.958;2023-06-26T02:59:07;6.63;;;6.00;;
2602;SDS011;1311;47.966;7.958;2023-06-26T03:01:34;8.20;;;6.67;;
2602;SDS011;1311;47.966;7.958;2023-06-26T03:04:02;6.23;;;5.63;;
2602;SDS011;1311;47.966;7.958;2023-06-26T03:06:29;7.13;;;6.30;;
2602;SDS011;1311;47.966;7.958;2023-06-26T03:08:57;6.63;;;5.90;;
2602;SDS011;1311;47.966;7.958;2023-06-26T03:11:24;6.90;;;6.23;;
2602;SDS011;1311;47.966;7.958;2023-06-26T03:13:51;6.90;;;6.20;;
2602;SDS011;1311;47.966;7.958;2023-06-26T03:16:17;7.47;;;6.40;;
2602;SDS011;1311;47.966;7.958;2023-06-26T03:18:44;6.63;;;6.03;;
2602;SDS011;1311;47.966;7.958;2023-06-26T03:21:11;6.83;;;6.13;;
2602;SDS011;1311;47.966;7.958;2023-06-26T03:23:38;7.03;;;6.33;;
2602;SDS011;1311;47.966;7.958;2023-06-26T03:26:06;6.17;;;5.57;;
2602;SDS011;1311;47.966;7.958;2023-06-26T03:28:32;8.67;;;6.10;;
2602;SDS011;1311;47.966;7.958;2023-06-26T03:30:59;7.00;;;6.30;;
2602;SDS011;1311;47.966;7.958;2023-06-26T03:33:26;7.27;;;6.57;;
2602;SDS011;1311;47.966;7.958;2023-06-26T03:35:52;6.87;;;6.00;;
2602;SDS011;1311;47.966;7.958;2023-06-26T03:38:19;6.83;;;5.93;;
2602;SDS011;1311;47.966;7.958;2023-06-26T03:40:47;7.10;;;6.40;;
2602;SDS011;1311;47.966;7.958;2023-06-26T03:43:15;7.07;;;6.10;;
2602;SDS011;1311;47.966;7.958;2023-06-26T03:45:42;6.80;;;6.10;;
2602;SDS011;1311;47.966;7.958;2023-06-26T03:48:09;8.43;;;6.30;;
2602;SDS011;1311;47.966;7.958;2023-06-26T03:50:36;7.10;;;6.23;;
2602;SDS011;1311;47.966;7.958;2023-06-26T03:53:02;6.83;;;5.90;;
2602;SDS011;1311;47.966;7.958;2023-06-26T03:55:29;10.97;;;7.00;;
2602;SDS011;1311;47.966;7.958;2023-06-26T03:57:56;6.40;;;5.80;;
2602;SDS011;1311;47.966;7.958;2023-06-26T04:00:24;7.53;;;6.73;;
2602;SDS011;1311;47.966;7.958;2023-06-26T04:02:51;7.27;;;6.57;;
2602;SDS011;1311;47.966;7.958;2023-06-26T04:05:18;7.63;;;6.83;;
2602;SDS011;1311;47.966;7.958;2023-06-26T04:07:45;6.43;;;5.83;;
2602;SDS011;1311;47.966;7.958;2023-06-26T04:10:11;7.47;;;6.77;;
2602;SDS011;1311;47.966;7.958;2023-06-26T04:12:38;7.23;;;6.53;;
2602;SDS011;1311;47.966;7.958;2023-06-26T04:15:05;7.93;;;6.57;;
2602;SDS011;1311;47.966;7.958;2023-06-26T04:17:34;7.33;;;6.00;;
2602;SDS011;1311;47.966;7.958;2023-06-26T04:20:01;6.87;;;6.17;;
2602;SDS011;1311;47.966;7.958;2023-06-26T04:22:31;6.37;;;5.80;;
2602;SDS011;1311;47.966;7.958;2023-06-26T04:24:58;8.10;;;6.33;;
2602;SDS011;1311;47.966;7.958;2023-06-26T04:27:24;7.00;;;6.33;;
2602;SDS011;1311;47.966;7.958;2023-06-26T04:29:51;6.50;;;5.90;;
2602;SDS011;1311;47.966;7.958;2023-06-26T04:32:18;6.83;;;6.20;;
2602;SDS011;1311;47.966;7.958;2023-06-26T04:34:46;6.63;;;5.63;;
2602;SDS011;1311;47.966;7.958;2023-06-26T04:37:13;5.80;;;5.30;;
2602;SDS011;1311;47.966;7.958;2023-06-26T04:39:41;5.83;;;5.23;;
2602;SDS011;1311;47.966;7.958;2023-06-26T04:42:08;5.70;;;5.20;;
2602;SDS011;1311;47.966;7.958;2023-06-26T04:44:36;6.47;;;5.70;;
2602;SDS011;1311;47.966;7.958;2023-06-26T04:47:03;5.87;;;5.37;;
2602;SDS011;1311;47.966;7.958;2023-06-26T04:49:30;6.53;;;5.97;;
2602;SDS011;1311;47.966;7.958;2023-06-26T04:51:58;5.67;;;5.10;;
2602;SDS011;1311;47.966;7.958;2023-06-26T04:54:25;6.17;;;5.67;;
2602;SDS011;1311;47.966;7.958;2023-06-26T04:56:53;6.50;;;5.90;;
2602;SDS011;1311;47.966;7.958;2023-06-26T04:59:20;7.10;;;6.50;;
2602;SDS011;1311;47.966;7.958;2023-06-26T05:01:47;5.90;;;5.40;;
2602;SDS011;1311;47.966;7.958;2023-06-26T05:04:14;6.30;;;5.70;;
2602;SDS011;1311;47.966;7.958;2023-06-26T05:06:41;5.73;;;5.27;;
2602;SDS011;1311;47.966;7.958;2023-06-26T05:09:09;5.90;;;5.40;;
2602;SDS011;1311;47.966;7.958;2023-06-26T05:11:36;5.90;;;5.40;;
2602;SDS011;1311;47.966;7.958;2023-06-26T05:14:03;6.10;;;5.60;;
2602;SDS011;1311;47.966;7.958;2023-06-26T05:16:32;6.77;;;6.17;;
2602;SDS011;1311;47.966;7.958;2023-06-26T05:18:59;6.13;;;5.63;;
2602;SDS011;1311;47.966;7.958;2023-06-26T05:21:25;6.57;;;5.97;;
2602;SDS011;1311;47.966;7.958;2023-06-26T05:23:53;6.37;;;5.87;;
2602;SDS011;1311;47.966;7.958;2023-06-26T05:26:24;6.30;;;5.80;;
2602;SDS011;1311;47.966;7.958;2023-06-26T05:28:52;5.97;;;5.50;;
2602;SDS011;1311;47.966;7.958;2023-06-26T05:31:19;5.53;;;5.13;;
2602;SDS011;1311;47.966;7.958;2023-06-26T05:33:46;6.13;;;5.63;;
2602;SDS011;1311;47.966;7.958;2023-06-26T05:36:14;5.60;;;5.10;;
2602;SDS011;1311;47.966;7.958;2023-06-26T05:38:43;6.07;;;5.50;;
2602;SDS011;1311;47.966;7.958;2023-06-26T05:41:10;5.93;;;5.43;;
2602;SDS011;1311;47.966;7.958;2023-06-26T05:43:38;6.13;;;5.37;;
2602;SDS011;1311;47.966;7.958;2023-06-26T05:46:05;5.67;;;5.20;;
2602;SDS011;1311;47.966;7.958;2023-06-26T05:48:32;5.37;;;4.97;;
2602;SDS011;1311;47.966;7.958;2023-06-26T05:50:59;5.93;;;5.53;;
2602;SDS011;1311;47.966;7.958;2023-06-26T05:53:26;5.90;;;5.50;;
2602;SDS011;1311;47.966;7.958;2023-06-26T05:55:55;5.30;;;4.90;;
2602;SDS011;1311;47.966;7.958;2023-06-26T05:58:23;5.30;;;4.90;;
2602;SDS011;1311;47.966;7.958;2023-06-26T06:00:53;5.47;;;5.07;;
2602;SDS011;1311;47.966;7.958;2023-06-26T06:03:20;6.20;;;5.70;;
2602;SDS011;1311;47.966;7.958;2023-06-26T06:05:47;6.00;;;4.87;;
2602;SDS011;1311;47.966;7.958;2023-06-26T06:08:14;6.00;;;5.60;;
2602;SDS011;1311;47.966;7.958;2023-06-26T06:10:40;5.93;;;5.43;;
2602;SDS011;1311;47.966;7.958;2023-06-26T06:13:07;6.20;;;5.60;;
2602;SDS011;1311;47.966;7.958;2023-06-26T06:15:34;6.13;;;5.67;;
2602;SDS011;1311;47.966;7.958;2023-06-26T06:18:02;6.00;;;5.60;;
2602;SDS011;1311;47.966;7.958;2023-06-26T06:20:29;6.80;;;6.20;;
2602;SDS011;1311;47.966;7.958;2023-06-26T06:22:56;6.10;;;5.40;;
2602;SDS011;1311;47.966;7.958;2023-06-26T06:25:23;6.10;;;5.60;;
2602;SDS011;1311;47.966;7.958;2023-06-26T06:27:50;6.57;;;6.00;;
2602;SDS011;1311;47.966;7.958;2023-06-26T06:30:17;7.03;;;6.43;;
2602;SDS011;1311;47.966;7.958;2023-06-26T06:32:44;6.63;;;5.97;;
2602;SDS011;1311;47.966;7.958;2023-06-26T06:35:16;6.03;;;5.53;;
2602;SDS011;1311;47.966;7.958;2023-06-26T06:37:43;6.10;;;5.60;;
2602;SDS011;1311;47.966;7.958;2023-06-26T06:40:10;6.47;;;5.97;;
2602;SDS011;1311;47.966;7.958;2023-06-26T06:42:37;6.90;;;6.30;;
2602;SDS011;1311;47.966;7.958;2023-06-26T06:45:04;6.80;;;6.20;;
2602;SDS011;1311;47.966;7.958;2023-06-26T06:47:32;6.70;;;6.20;;
2602;SDS011;1311;47.966;7.958;2023-06-26T06:49:59;6.83;;;6.17;;
2602;SDS011;1311;47.966;7.958;2023-06-26T06:52:34;6.97;;;6.37;;
2602;SDS011;1311;47.966;7.958;2023-06-26T06:55:01;7.77;;;7.17;;
2602;SDS011;1311;47.966;7.958;2023-06-26T06:57:31;8.10;;;7.40;;
2602;SDS011;1311;47.966;7.958;2023-06-26T07:00:00;6.80;;;6.20;;
2602;SDS011;1311;47.966;7.958;2023-06-26T07:02:29;8.27;;;7.57;;
2602;SDS011;1311;47.966;7.958;2023-06-26T07:04:56;8.07;;;7.23;;
2602;SDS011;1311;47.966;7.958;2023-06-26T07:07:23;7.80;;;7.20;;
2602;SDS011;1311;47.966;7.958;2023-06-26T07:09:51;8.23;;;7.53;;
2602;SDS011;1311;47.966;7.958;2023-06-26T07:12:17;7.80;;;6.33;;
2602;SDS011;1311;47.966;7.958;2023-06-26T07:14:44;8.60;;;7.73;;
2602;SDS011;1311;47.966;7.958;2023-06-26T07:17:11;7.07;;;6.47;;
2602;SDS011;1311;47.966;7.958;2023-06-26T07:19:38;7.90;;;7.20;;
2602;SDS011;1311;47.966;7.958;2023-06-26T07:22:04;7.47;;;6.87;;
2602;SDS011;1311;47.966;7.958;2023-06-26T07:24:31;7.80;;;6.83;;
2602;SDS011;1311;47.966;7.958;2023-06-26T07:27:00;7.00;;;6.40;;
2602;SDS011;1311;47.966;7.958;2023-06-26T07:29:27;7.80;;;7.10;;
2602;SDS011;1311;47.966;7.958;2023-06-26T07:31:53;7.33;;;6.63;;
2602;SDS011;1311;47.966;7.958;2023-06-26T07:34:20;8.10;;;7.03;;
2602;SDS011;1311;47.966;7.958;2023-06-26T07:36:47;7.23;;;6.63;;
2602;SDS011;1311;47.966;7.958;2023-06-26T07:39:14;7.73;;;7.03;;
2602;SDS011;1311;47.966;7.958;2023-06-26T07:41:40;7.03;;;6.43;;
2602;SDS011;1311;47.966;7.958;2023-06-26T07:44:09;7.97;;;7.27;;
2602;SDS011;1311;47.966;7.958;2023-06-26T07:46:35;6.90;;;6.40;;
2602;SDS011;1311;47.966;7.958;2023-06-26T07:49:02;7.40;;;6.70;;
2602;SDS011;1311;47.966;7.958;2023-06-26T07:51:29;7.87;;;6.33;;
2602;SDS011;1311;47.966;7.958;2023-06-26T07:53:56;7.53;;;6.60;;
2602;SDS011;1311;47.966;7.958;2023-06-26T07:56:22;7.37;;;6.77;;
2602;SDS011;1311;47.966;7.958;2023-06-26T07:58:49;7.13;;;6.53;;
2602;SDS011;1311;47.966;7.958;2023-06-26T08:01:17;12.17;;;7.87;;
2602;SDS011;1311;47.966;7.958;2023-06-26T08:03:44;7.13;;;6.53;;
2602;SDS011;1311;47.966;7.958;2023-06-26T08:06:11;7.70;;;7.00;;
2602;SDS011;1311;47.966;7.958;2023-06-26T08:08:37;7.77;;;7.07;;
2602;SDS011;1311;47.966;7.958;2023-06-26T08:11:04;7.10;;;6.50;;
2602;SDS011;1311;47.966;7.958;2023-06-26T08:13:31;6.60;;;6.07;;
2602;SDS011;1311;47.966;7.958;2023-06-26T08:15:57;7.27;;;6.63;;
2602;SDS011;1311;47.966;7.958;2023-06-26T08:18:26;7.10;;;6.40;;
2602;SDS011;1311;47.966;7.958;2023-06-26T08:20:52;8.43;;;7.63;;
2602;SDS011;1311;47.966;7.958;2023-06-26T08:23:19;7.47;;;6.87;;
2602;SDS011;1311;47.966;7.958;2023-06-26T08:25:47;7.30;;;6.60;;
2602;SDS011;1311;47.966;7.958;2023-06-26T08:28:13;8.47;;;7.77;;
2602;SDS011;1311;47.966;7.958;2023-06-26T08:30:40;8.73;;;7.03;;
2602;SDS011;1311;47.966;7.958;2023-06-26T08:33:07;7.03;;;6.43;;
2602;SDS011;1311;47.966;7.958;2023-06-26T08:35:38;8.13;;;6.10;;
2602;SDS011;1311;47.966;7.958;2023-06-26T08:38:05;7.57;;;6.40;;
2602;SDS011;1311;47.966;7.958;2023-06-26T08:40:33;6.90;;;6.30;;
2602;SDS011;1311;47.966;7.958;2023-06-26T08:43:01;6.10;;;5.60;;
2602;SDS011;1311;47.966;7.958;2023-06-26T08:45:28;6.57;;;6.07;;
2602;SDS011;1311;47.966;7.958;2023-06-26T08:47:55;13.30;;;6.30;;
2602;SDS011;1311;47.966;7.958;2023-06-26T08:50:30;6.97;;;6.37;;
2602;SDS011;1311;47.966;7.958;2023-06-26T08:53:02;6.80;;;5.97;;
2602;SDS011;1311;47.966;7.958;2023-06-26T08:55:38;7.00;;;6.37;;
2602;SDS011;1311;47.966;7.958;2023-06-26T08:58:07;6.37;;;5.87;;
2602;SDS011;1311;47.966;7.958;2023-06-26T09:00:34;6.70;;;6.10;;
2602;SDS011;1311;47.966;7.958;2023-06-26T09:03:00;6.53;;;5.93;;
2602;SDS011;1311;47.966;7.958;2023-06-26T09:05:30;7.37;;;6.67;;
2602;SDS011;1311;47.966;7.958;2023-06-26T09:07:57;7.87;;;7.03;;
2602;SDS011;1311;47.966;7.958;2023-06-26T09:10:26;8.07;;;7.27;;
2602;SDS011;1311;47.966;7.958;2023-06-26T09:12:54;6.70;;;6.10;;
2602;SDS011;1311;47.966;7.958;2023-06-26T09:15:22;6.97;;;6.27;;
2602;SDS011;1311;47.966;7.958;2023-06-26T09:17:49;7.60;;;6.97;;
2602;SDS011;1311;47.966;7.958;2023-06-26T09:20:16;7.30;;;6.43;;
2602;SDS011;1311;47.966;7.958;2023-06-26T09:22:47;7.73;;;6.67;;
2602;SDS011;1311;47.966;7.958;2023-06-26T09:25:14;7.80;;;7.00;;
2602;SDS011;1311;47.966;7.958;2023-06-26T09:27:44;7.73;;;7.00;;
2602;SDS011;1311;47.966;7.958;2023-06-26T09:30:12;7.63;;;6.90;;
2602;SDS011;1311;47.966;7.958;2023-06-26T09:32:43;7.83;;;7.13;;
2602;SDS011;1311;47.966;7.958;2023-06-26T09:35:10;7.90;;;7.20;;
2602;SDS011;1311;47.966;7.958;2023-06-26T09:37:37;8.60;;;7.63;;
2602;SDS011;1311;47.966;7.958;2023-06-26T09:40:04;8.17;;;7.37;;
2602;SDS011;1311;47.966;7.958;2023-06-26T09:42:32;7.80;;;7.13;;
2602;SDS011;1311;47.966;7.958;2023-06-26T09:45:00;8.60;;;7.30;;
2602;SDS011;1311;47.966;7.958;2023-06-26T09:47:29;9.93;;;8.00;;
2602;SDS011;1311;47.966;7.958;2023-06-26T09:49:56;8.67;;;7.80;;
2602;SDS011;1311;47.966;7.958;2023-06-26T09:52:26;8.10;;;7.40;;
2602;SDS011;1311;47.966;7.958;2023-06-26T09:55:06;9.20;;;7.80;;
2602;SDS011;1311;47.966;7.958;2023-06-26T09:57:34;8.20;;;7.50;;
2602;SDS011;1311;47.966;7.958;2023-06-26T10:00:02;8.97;;;7.87;;
2602;SDS011;1311;47.966;7.958;2023-06-26T10:02:30;9.80;;;8.33;;
2602;SDS011;1311;47.966;7.958;2023-06-26T10:04:57;8.37;;;7.50;;
2602;SDS011;1311;47.966;7.958;2023-06-26T10:07:24;8.50;;;7.60;;
2602;SDS011;1311;47.966;7.958;2023-06-26T10:09:50;9.33;;;8.53;;
2602;SDS011;1311;47.966;7.958;2023-06-26T10:12:22;8.47;;;7.77;;
2602;SDS011;1311;47.966;7.958;2023-06-26T10:14:53;9.20;;;8.27;;
2602;SDS011;1311;47.966;7.958;2023-06-26T10:17:24;8.90;;;8.10;;
2602;SDS011;1311;47.966;7.958;2023-06-26T10:19:53;9.37;;;8.47;;
2602;SDS011;1311;47.966;7.958;2023-06-26T10:22:25;8.83;;;7.90;;
2602;SDS011;1311;47.966;7.958;2023-06-26T10:24:55;9.23;;;8.33;;
2602;SDS011;1311;47.966;7.958;2023-06-26T10:27:25;10.17;;;8.10;;
2602;SDS011;1311;47.966;7.958;2023-06-26T10:29:57;7.87;;;7.07;;
2602;SDS011;1311;47.966;7.958;2023-06-26T10:32:29;8.73;;;7.93;;
2602;SDS011;1311;47.966;7.958;2023-06-26T10:34:57;9.27;;;8.43;;
2602;SDS011;1311;47.966;7.958;2023-06-26T10:40:07;9.27;;;8.40;;
2602;SDS011;1311;47.966;7.958;2023-06-26T10:42:35;8.93;;;8.03;;
2602;SDS011;1311;47.966;7.958;2023-06-26T10:45:08;10.33;;;8.10;;
2602;SDS011;1311;47.966;7.958;2023-06-26T10:47:37;8.43;;;7.63;;
2602;SDS011;1311;47.966;7.958;2023-06-26T10:50:19;8.47;;;7.77;;
2602;SDS011;1311;47.966;7.958;2023-06-26T10:55:33;9.47;;;8.33;;
2602;SDS011;1311;47.966;7.958;2023-06-26T10:58:00;8.87;;;7.83;;
2602;SDS011;1311;47.966;7.958;2023-06-26T11:00:28;9.17;;;8.27;;
2602;SDS011;1311;47.966;7.958;2023-06-26T11:02:56;8.77;;;7.90;;
2602;SDS011;1311;47.966;7.958;2023-06-26T11:05:23;8.73;;;8.03;;
2602;SDS011;1311;47.966;7.958;2023-06-26T11:08:05;8.13;;;7.37;;
2602;SDS011;1311;47.966;7.958;2023-06-26T11:13:26;8.20;;;7.50;;
2602;SDS011;1311;47.966;7.958;2023-06-26T11:15:53;9.13;;;8.23;;
2602;SDS011;1311;47.966;7.958;2023-06-26T11:18:23;8.80;;;8.10;;
2602;SDS011;1311;47.966;7.958;2023-06-26T11:20:50;8.37;;;7.60;;
2602;SDS011;1311;47.966;7.958;2023-06-26T11:23:19;9.37;;;8.13;;
2602;SDS011;1311;47.966;7.958;2023-06-26T11:25:49;8.37;;;7.67;;
2602;SDS011;1311;47.966;7.958;2023-06-26T11:28:15;10.67;;;8.70;;
2602;SDS011;1311;47.966;7.958;2023-06-26T11:30:42;10.00;;;9.00;;
2602;SDS011;1311;47.966;7.958;2023-06-26T11:33:09;8.83;;;7.83;;
2602;SDS011;1311;47.966;7.958;2023-06-26T11:35:38;8.30;;;7.60;;
2602;SDS011;1311;47.966;7.958;2023-06-26T11:38:04;8.77;;;7.87;;
2602;SDS011;1311;47.966;7.958;2023-06-26T11:40:32;9.00;;;8.20;;
2602;SDS011;1311;47.966;7.958;2023-06-26T11:43:00;8.73;;;8.03;;
2602;SDS011;1311;47.966;7.958;2023-06-26T11:45:28;9.10;;;8.20;;
2602;SDS011;1311;47.966;7.958;2023-06-26T11:47:55;9.80;;;9.00;;
2602;SDS011;1311;47.966;7.958;2023-06-26T11:50:23;12.70;;;8.33;;
2602;SDS011;1311;47.966;7.958;2023-06-26T11:52:54;8.40;;;7.60;;
2602;SDS011;1311;47.966;7.958;2023-06-26T11:55:22;8.00;;;7.30;;
2602;SDS011;1311;47.966;7.958;2023-06-26T11:57:49;7.67;;;6.97;;
2602;SDS011;1311;47.966;7.958;2023-06-26T12:00:19;8.70;;;7.87;;
2602;SDS011;1311;47.966;7.958;2023-06-26T12:02:47;7.80;;;7.20;;
2602;SDS011;1311;47.966;7.958;2023-06-26T12:05:14;9.17;;;8.33;;
2602;SDS011;1311;47.966;7.958;2023-06-26T12:07:42;8.83;;;7.93;;
2602;SDS011;1311;47.966;7.958;2023-06-26T12:10:12;8.80;;;7.90;;
2602;SDS011;1311;47.966;7.958;2023-06-26T12:12:40;13.53;;;8.00;;
2602;SDS011;1311;47.966;7.958;2023-06-26T12:15:08;9.73;;;8.93;;
2602;SDS011;1311;47.966;7.958;2023-06-26T12:17:37;9.03;;;8.23;;
2602;SDS011;1311;47.966;7.958;2023-06-26T12:20:05;8.40;;;7.70;;
2602;SDS011;1311;47.966;7.958;2023-06-26T12:22:45;9.10;;;8.20;;
2602;SDS011;1311;47.966;7.958;2023-06-26T12:25:13;8.90;;;8.00;;
2602;SDS011;1311;47.966;7.958;2023-06-26T12:27:40;7.63;;;6.93;;
2602;SDS011;1311;47.966;7.958;2023-06-26T12:30:07;7.43;;;6.77;;
2602;SDS011;1311;47.966;7.958;2023-06-26T12:32:35;7.90;;;7.17;;
2602;SDS011;1311;47.966;7.958;2023-06-26T12:35:01;7.90;;;7.07;;
2602;SDS011;1311;47.966;7.958;2023-06-26T12:37:28;7.57;;;6.83;;
2602;SDS011;1311;47.966;7.958;2023-06-26T12:39:55;7.63;;;6.83;;
2602;SDS011;1311;47.966;7.958;2023-06-26T12:42:25;7.77;;;7.00;;
2602;SDS011;1311;47.966;7.958;2023-06-26T12:44:54;7.37;;;6.67;;
2602;SDS011;1311;47.966;7.958;2023-06-26T12:47:23;8.80;;;6.90;;
2602;SDS011;1311;47.966;7.958;2023-06-26T12:49:51;8.53;;;7.63;;
2602;SDS011;1311;47.966;7.958;2023-06-26T12:52:19;7.67;;;7.07;;
2602;SDS011;1311;47.966;7.958;2023-06-26T12:54:47;7.73;;;6.80;;
2602;SDS011;1311;47.966;7.958;2023-06-26T12:57:18;7.63;;;7.00;;
2602;SDS011;1311;47.966;7.958;2023-06-26T12:59:46;7.57;;;6.87;;
2602;SDS011;1311;47.966;7.958;2023-06-26T13:02:13;7.70;;;6.60;;
2602;SDS011;1311;47.966;7.958;2023-06-26T13:04:40;7.07;;;6.47;;
2602;SDS011;1311;47.966;7.958;2023-06-26T13:07:09;8.80;;;7.80;;
2602;SDS011;1311;47.966;7.958;2023-06-26T13:09:36;7.70;;;7.00;;
2602;SDS011;1311;47.966;7.958;2023-06-26T13:12:06;7.60;;;6.90;;
2602;SDS011;1311;47.966;7.958;2023-06-26T13:14:33;8.20;;;7.00;;
2602;SDS011;1311;47.966;7.958;2023-06-26T13:17:01;7.03;;;6.43;;
2602;SDS011;1311;47.966;7.958;2023-06-26T13:19:28;6.70;;;6.20;;
2602;SDS011;1311;47.966;7.958;2023-06-26T13:21:55;7.27;;;6.67;;
2602;SDS011;1311;47.966;7.958;2023-06-26T13:24:21;7.70;;;7.10;;
2602;SDS011;1311;47.966;7.958;2023-06-26T13:26:48;7.60;;;6.90;;
2602;SDS011;1311;47.966;7.958;2023-06-26T13:29:15;6.90;;;6.20;;
2602;SDS011;1311;47.966;7.958;2023-06-26T13:31:42;6.70;;;6.10;;
2602;SDS011;1311;47.966;7.958;2023-06-26T13:34:13;6.50;;;5.90;;
2602;SDS011;1311;47.966;7.958;2023-06-26T13:36:47;6.17;;;5.57;;
2602;SDS011;1311;47.966;7.958;2023-06-26T13:39:13;7.10;;;6.40;;
2602;SDS011;1311;47.966;7.958;2023-06-26T13:41:40;6.07;;;5.57;;
2602;SDS011;1311;47.966;7.958;2023-06-26T13:44:07;6.63;;;6.03;;
2602;SDS011;1311;47.966;7.958;2023-06-26T13:46:34;7.67;;;5.43;;
2602;SDS011;1311;47.966;7.958;2023-06-26T13:49:00;9.73;;;6.30;;
2602;SDS011;1311;47.966;7.958;2023-06-26T13:51:28;6.00;;;5.40;;
2602;SDS011;1311;47.966;7.958;2023-06-26T13:53:55;6.53;;;6.00;;
2602;SDS011;1311;47.966;7.958;2023-06-26T13:56:25;6.63;;;6.03;;
2602;SDS011;1311;47.966;7.958;2023-06-26T13:58:53;5.87;;;5.30;;
2602;SDS011;1311;47.966;7.958;2023-06-26T14:01:20;5.90;;;5.40;;
2602;SDS011;1311;47.966;7.958;2023-06-26T14:03:46;5.90;;;5.30;;
2602;SDS011;1311;47.966;7.958;2023-06-26T14:06:13;5.90;;;5.33;;
2602;SDS011;1311;47.966;7.958;2023-06-26T14:08:41;6.13;;;5.50;;
2602;SDS011;1311;47.966;7.958;2023-06-26T14:11:08;6.60;;;5.97;;
2602;SDS011;1311;47.966;7.958;2023-06-26T14:13:35;8.83;;;5.60;;
2602;SDS011;1311;47.966;7.958;2023-06-26T14:16:02;5.60;;;4.57;;
2602;SDS011;1311;47.966;7.958;2023-06-26T14:18:29;5.90;;;5.33;;
2602;SDS011;1311;47.966;7.958;2023-06-26T14:20:56;5.60;;;5.10;;
2602;SDS011;1311;47.966;7.958;2023-06-26T14:23:23;6.70;;;5.30;;
2602;SDS011;1311;47.966;7.958;2023-06-26T14:25:51;5.03;;;4.60;;
2602;SDS011;1311;47.966;7.958;2023-06-26T14:28:18;5.50;;;5.00;;
2602;SDS011;1311;47.966;7.958;2023-06-26T14:30:44;4.57;;;4.17;;
2602;SDS011;1311;47.966;7.958;2023-06-26T14:33:11;5.73;;;4.60;;
2602;SDS011;1311;47.966;7.958;2023-06-26T14:35:38;6.43;;;4.30;;
2602;SDS011;1311;47.966;7.958;2023-06-26T14:38:05;6.53;;;4.80;;
2602;SDS011;1311;47.966;7.958;2023-06-26T14:40:31;4.57;;;4.13;;
2602;SDS011;1311;47.966;7.958;2023-06-26T14:42:59;5.00;;;3.60;;
2602;SDS011;1311;47.966;7.958;2023-06-26T14:45:26;5.20;;;3.60;;
2602;SDS011;1311;47.966;7.958;2023-06-26T14:47:53;4.20;;;3.80;;
2602;SDS011;1311;47.966;7.958;2023-06-26T14:50:20;6.13;;;3.70;;
2602;SDS011;1311;47.966;7.958;2023-06-26T14:52:46;5.17;;;3.80;;
2602;SDS011;1311;47.966;7.958;2023-06-26T14:55:13;3.87;;;3.50;;
2602;SDS011;1311;47.966;7.958;2023-06-26T14:57:40;4.33;;;3.43;;
2602;SDS011;1311;47.966;7.958;2023-06-26T15:00:09;4.33;;;3.93;;
2602;SDS011;1311;47.966;7.958;2023-06-26T15:02:36;3.60;;;3.30;;
2602;SDS011;1311;47.966;7.958;2023-06-26T15:05:03;3.83;;;3.40;;
2602;SDS011;1311;47.966;7.958;2023-06-26T15:07:30;6.03;;;3.70;;
2602;SDS011;1311;47.966;7.958;2023-06-26T15:09:57;4.20;;;3.80;;
2602;SDS011;1311;47.966;7.958;2023-06-26T15:12:24;5.63;;;3.90;;
2602;SDS011;1311;47.966;7.958;2023-06-26T15:14:52;4.07;;;3.50;;
2602;SDS011;1311;47.966;7.958;2023-06-26T15:17:20;3.90;;;3.60;;
2602;SDS011;1311;47.966;7.958;2023-06-26T15:19:47;5.93;;;3.90;;
2602;SDS011;1311;47.966;7.958;2023-06-26T15:22:13;5.40;;;4.07;;
2602;SDS011;1311;47.966;7.958;2023-06-26T15:24:43;7.83;;;4.00;;
2602;SDS011;1311;47.966;7.958;2023-06-26T15:27:10;8.33;;;4.20;;